sensor_id;sensor_type;location;lat;lon;timestamp;P1;durP1;ratioP1;P2;durP2;ratioP2
53666;SDS011;39568;51.026;5.468;2022-07-25T00:00:08;7.38;;;6.65;;
53666;SDS011;39568;51.026;5.468;2022-07-25T00:02:35;10.75;;;7.45;;
53666;SDS011;39568;51.026;5.468;2022-07-25T00:05:02;8.07;;;7.30;;
53666;SDS011;39568;51.026;5.468;2022-07-25T00:07:31;11.48;;;7.30;;
53666;SDS011;39568;51.026;5.468;2022-07-25T00:09:58;9.02;;;7.07;;
53666;SDS011;39568;51.026;5.468;2022-07-25T00:12:25;13.00;;;7.40;;
53666;SDS011;39568;51.026;5.468;2022-07-25T00:14:52;11.80;;;7.80;;
53666;SDS011;39568;51.026;5.468;2022-07-25T00:17:18;7.25;;;6.45;;
53666;SDS011;39568;51.026;5.468;2022-07-25T00:19:45;10.73;;;7.07;;
53666;SDS011;39568;51.026;5.468;2022-07-25T00:22:11;14.50;;;7.57;;
53666;SDS011;39568;51.026;5.468;2022-07-25T00:24:39;8.02;;;6.68;;
53666;SDS011;39568;51.026;5.468;2022-07-25T00:27:06;8.48;;;7.35;;
53666;SDS011;39568;51.026;5.468;2022-07-25T00:29:32;7.00;;;6.50;;
53666;SDS011;39568;51.026;5.468;2022-07-25T00:32:00;7.35;;;6.60;;
53666;SDS011;39568;51.026;5.468;2022-07-25T00:34:26;10.82;;;7.00;;
53666;SDS011;39568;51.026;5.468;2022-07-25T00:36:53;13.52;;;6.53;;
53666;SDS011;39568;51.026;5.468;2022-07-25T00:39:19;7.43;;;6.68;;
53666;SDS011;39568;51.026;5.468;2022-07-25T00:41:47;8.45;;;6.60;;
53666;SDS011;39568;51.026;5.468;2022-07-25T00:44:21;7.05;;;6.55;;
53666;SDS011;39568;51.026;5.468;2022-07-25T00:46:49;13.20;;;7.90;;
53666;SDS011;39568;51.026;5.468;2022-07-25T00:49:15;12.52;;;6.82;;
53666;SDS011;39568;51.026;5.468;2022-07-25T00:51:42;7.60;;;6.88;;
53666;SDS011;39568;51.026;5.468;2022-07-25T00:54:10;7.97;;;6.90;;
53666;SDS011;39568;51.026;5.468;2022-07-25T00:56:36;9.23;;;6.75;;
53666;SDS011;39568;51.026;5.468;2022-07-25T00:59:05;9.25;;;7.03;;
53666;SDS011;39568;51.026;5.468;2022-07-25T01:01:32;8.20;;;6.47;;
53666;SDS011;39568;51.026;5.468;2022-07-25T01:03:58;15.05;;;6.70;;
53666;SDS011;39568;51.026;5.468;2022-07-25T01:06:25;7.80;;;6.93;;
53666;SDS011;39568;51.026;5.468;2022-07-25T01:08:52;9.50;;;7.20;;
53666;SDS011;39568;51.026;5.468;2022-07-25T01:11:20;6.70;;;6.10;;
53666;SDS011;39568;51.026;5.468;2022-07-25T01:13:47;12.23;;;6.78;;
53666;SDS011;39568;51.026;5.468;2022-07-25T01:16:16;6.47;;;5.90;;
53666;SDS011;39568;51.026;5.468;2022-07-25T01:18:42;14.13;;;7.72;;
53666;SDS011;39568;51.026;5.468;2022-07-25T01:21:10;11.43;;;6.80;;
53666;SDS011;39568;51.026;5.468;2022-07-25T01:23:38;6.93;;;6.43;;
53666;SDS011;39568;51.026;5.468;2022-07-25T01:26:05;7.93;;;7.13;;
53666;SDS011;39568;51.026;5.468;2022-07-25T01:28:32;7.30;;;6.65;;
53666;SDS011;39568;51.026;5.468;2022-07-25T01:30:59;11.57;;;7.30;;
53666;SDS011;39568;51.026;5.468;2022-07-25T01:33:25;7.28;;;6.57;;
53666;SDS011;39568;51.026;5.468;2022-07-25T01:35:52;6.95;;;6.35;;
53666;SDS011;39568;51.026;5.468;2022-07-25T01:38:20;13.68;;;7.45;;
53666;SDS011;39568;51.026;5.468;2022-07-25T01:40:47;9.60;;;6.30;;
53666;SDS011;39568;51.026;5.468;2022-07-25T01:43:13;7.78;;;6.72;;
53666;SDS011;39568;51.026;5.468;2022-07-25T01:45:40;7.55;;;6.90;;
53666;SDS011;39568;51.026;5.468;2022-07-25T01:48:06;7.68;;;6.47;;
53666;SDS011;39568;51.026;5.468;2022-07-25T01:50:33;8.00;;;7.13;;
53666;SDS011;39568;51.026;5.468;2022-07-25T01:53:00;7.05;;;6.40;;
53666;SDS011;39568;51.026;5.468;2022-07-25T01:55:28;7.35;;;6.18;;
53666;SDS011;39568;51.026;5.468;2022-07-25T01:57:58;8.38;;;6.72;;
53666;SDS011;39568;51.026;5.468;2022-07-25T02:00:25;6.97;;;6.20;;
53666;SDS011;39568;51.026;5.468;2022-07-25T02:02:51;10.50;;;6.22;;
53666;SDS011;39568;51.026;5.468;2022-07-25T02:05:38;8.05;;;6.00;;
53666;SDS011;39568;51.026;5.468;2022-07-25T02:08:05;8.68;;;5.95;;
53666;SDS011;39568;51.026;5.468;2022-07-25T02:10:33;11.05;;;6.38;;
53666;SDS011;39568;51.026;5.468;2022-07-25T02:13:00;6.97;;;6.38;;
53666;SDS011;39568;51.026;5.468;2022-07-25T02:15:26;6.47;;;5.60;;
53666;SDS011;39568;51.026;5.468;2022-07-25T02:17:53;7.10;;;6.43;;
53666;SDS011;39568;51.026;5.468;2022-07-25T02:20:20;6.97;;;5.70;;
53666;SDS011;39568;51.026;5.468;2022-07-25T02:22:46;7.78;;;5.85;;
53666;SDS011;39568;51.026;5.468;2022-07-25T02:25:13;6.13;;;5.57;;
53666;SDS011;39568;51.026;5.468;2022-07-25T02:27:41;9.23;;;5.95;;
53666;SDS011;39568;51.026;5.468;2022-07-25T02:30:08;5.40;;;4.90;;
53666;SDS011;39568;51.026;5.468;2022-07-25T02:32:35;6.18;;;5.57;;
53666;SDS011;39568;51.026;5.468;2022-07-25T02:35:02;6.20;;;5.70;;
53666;SDS011;39568;51.026;5.468;2022-07-25T02:37:29;10.02;;;6.78;;
53666;SDS011;39568;51.026;5.468;2022-07-25T02:39:55;6.22;;;5.65;;
53666;SDS011;39568;51.026;5.468;2022-07-25T02:42:22;7.70;;;6.25;;
53666;SDS011;39568;51.026;5.468;2022-07-25T02:44:50;9.63;;;6.47;;
53666;SDS011;39568;51.026;5.468;2022-07-25T02:47:17;9.77;;;5.43;;
53666;SDS011;39568;51.026;5.468;2022-07-25T02:49:46;6.45;;;5.85;;
53666;SDS011;39568;51.026;5.468;2022-07-25T02:52:13;8.40;;;5.40;;
53666;SDS011;39568;51.026;5.468;2022-07-25T02:54:39;5.38;;;4.45;;
53666;SDS011;39568;51.026;5.468;2022-07-25T02:57:06;5.90;;;5.40;;
53666;SDS011;39568;51.026;5.468;2022-07-25T02:59:33;5.28;;;4.88;;
53666;SDS011;39568;51.026;5.468;2022-07-25T03:02:01;5.93;;;5.28;;
53666;SDS011;39568;51.026;5.468;2022-07-25T03:04:27;4.85;;;4.47;;
53666;SDS011;39568;51.026;5.468;2022-07-25T03:06:55;6.28;;;5.30;;
53666;SDS011;39568;51.026;5.468;2022-07-25T03:09:21;4.70;;;4.30;;
53666;SDS011;39568;51.026;5.468;2022-07-25T03:11:48;6.80;;;4.15;;
53666;SDS011;39568;51.026;5.468;2022-07-25T03:14:16;5.47;;;4.35;;
53666;SDS011;39568;51.026;5.468;2022-07-25T03:16:42;5.10;;;4.55;;
53666;SDS011;39568;51.026;5.468;2022-07-25T03:19:10;6.60;;;4.80;;
53666;SDS011;39568;51.026;5.468;2022-07-25T03:21:38;5.95;;;4.47;;
53666;SDS011;39568;51.026;5.468;2022-07-25T03:24:05;5.60;;;4.70;;
53666;SDS011;39568;51.026;5.468;2022-07-25T03:26:32;13.65;;;4.88;;
53666;SDS011;39568;51.026;5.468;2022-07-25T03:28:58;4.43;;;4.03;;
53666;SDS011;39568;51.026;5.468;2022-07-25T03:31:25;5.85;;;4.07;;
53666;SDS011;39568;51.026;5.468;2022-07-25T03:33:52;8.07;;;4.45;;
53666;SDS011;39568;51.026;5.468;2022-07-25T03:36:20;7.53;;;4.30;;
53666;SDS011;39568;51.026;5.468;2022-07-25T03:38:47;4.43;;;4.10;;
53666;SDS011;39568;51.026;5.468;2022-07-25T03:41:13;9.70;;;4.40;;
53666;SDS011;39568;51.026;5.468;2022-07-25T03:43:40;5.68;;;5.28;;
53666;SDS011;39568;51.026;5.468;2022-07-25T03:46:06;5.00;;;4.60;;
53666;SDS011;39568;51.026;5.468;2022-07-25T03:48:33;7.07;;;3.83;;
53666;SDS011;39568;51.026;5.468;2022-07-25T03:51:00;5.65;;;4.00;;
53666;SDS011;39568;51.026;5.468;2022-07-25T03:53:28;7.45;;;4.93;;
53666;SDS011;39568;51.026;5.468;2022-07-25T03:55:54;6.60;;;4.75;;
53666;SDS011;39568;51.026;5.468;2022-07-25T03:58:21;5.70;;;4.57;;
53666;SDS011;39568;51.026;5.468;2022-07-25T04:00:48;4.95;;;4.45;;
53666;SDS011;39568;51.026;5.468;2022-07-25T04:03:14;4.82;;;3.50;;
53666;SDS011;39568;51.026;5.468;2022-07-25T04:05:41;4.93;;;4.40;;
53666;SDS011;39568;51.026;5.468;2022-07-25T04:08:07;5.97;;;4.95;;
53666;SDS011;39568;51.026;5.468;2022-07-25T04:10:35;6.40;;;4.47;;
53666;SDS011;39568;51.026;5.468;2022-07-25T04:13:02;4.72;;;4.25;;
53666;SDS011;39568;51.026;5.468;2022-07-25T04:15:29;5.35;;;4.70;;
53666;SDS011;39568;51.026;5.468;2022-07-25T04:17:55;4.70;;;4.30;;
53666;SDS011;39568;51.026;5.468;2022-07-25T04:20:22;4.70;;;4.30;;
53666;SDS011;39568;51.026;5.468;2022-07-25T04:22:48;4.45;;;4.05;;
53666;SDS011;39568;51.026;5.468;2022-07-25T04:25:15;4.53;;;4.20;;
53666;SDS011;39568;51.026;5.468;2022-07-25T04:27:44;9.20;;;4.55;;
53666;SDS011;39568;51.026;5.468;2022-07-25T04:30:10;4.18;;;3.88;;
53666;SDS011;39568;51.026;5.468;2022-07-25T04:32:38;4.63;;;4.22;;
53666;SDS011;39568;51.026;5.468;2022-07-25T04:35:05;5.40;;;4.90;;
53666;SDS011;39568;51.026;5.468;2022-07-25T04:37:32;4.55;;;4.00;;
53666;SDS011;39568;51.026;5.468;2022-07-25T04:40:00;7.28;;;4.40;;
53666;SDS011;39568;51.026;5.468;2022-07-25T04:42:26;8.38;;;4.03;;
53666;SDS011;39568;51.026;5.468;2022-07-25T04:44:54;4.82;;;4.53;;
53666;SDS011;39568;51.026;5.468;2022-07-25T04:47:21;5.63;;;4.18;;
53666;SDS011;39568;51.026;5.468;2022-07-25T04:49:48;4.60;;;4.18;;
53666;SDS011;39568;51.026;5.468;2022-07-25T04:52:14;6.88;;;4.75;;
53666;SDS011;39568;51.026;5.468;2022-07-25T04:54:41;7.40;;;5.00;;
53666;SDS011;39568;51.026;5.468;2022-07-25T04:57:07;5.68;;;4.53;;
53666;SDS011;39568;51.026;5.468;2022-07-25T04:59:34;15.10;;;3.85;;
53666;SDS011;39568;51.026;5.468;2022-07-25T05:02:02;6.30;;;4.07;;
53666;SDS011;39568;51.026;5.468;2022-07-25T05:04:29;4.20;;;3.88;;
53666;SDS011;39568;51.026;5.468;2022-07-25T05:06:55;2.78;;;2.58;;
53666;SDS011;39568;51.026;5.468;2022-07-25T05:09:22;4.35;;;4.05;;
53666;SDS011;39568;51.026;5.468;2022-07-25T05:11:49;5.40;;;3.55;;
53666;SDS011;39568;51.026;5.468;2022-07-25T05:14:15;5.32;;;3.92;;
53666;SDS011;39568;51.026;5.468;2022-07-25T05:16:42;4.10;;;3.80;;
53666;SDS011;39568;51.026;5.468;2022-07-25T05:19:10;8.27;;;3.92;;
53666;SDS011;39568;51.026;5.468;2022-07-25T05:21:37;4.70;;;4.35;;
53666;SDS011;39568;51.026;5.468;2022-07-25T05:24:04;5.53;;;3.95;;
53666;SDS011;39568;51.026;5.468;2022-07-25T05:26:31;5.88;;;3.83;;
53666;SDS011;39568;51.026;5.468;2022-07-25T05:28:57;3.53;;;3.33;;
53666;SDS011;39568;51.026;5.468;2022-07-25T05:31:24;4.40;;;4.10;;
53666;SDS011;39568;51.026;5.468;2022-07-25T05:33:51;4.90;;;4.32;;
53666;SDS011;39568;51.026;5.468;2022-07-25T05:36:19;5.10;;;4.13;;
53666;SDS011;39568;51.026;5.468;2022-07-25T05:38:45;4.93;;;3.88;;
53666;SDS011;39568;51.026;5.468;2022-07-25T05:41:12;4.13;;;3.78;;
53666;SDS011;39568;51.026;5.468;2022-07-25T05:43:39;4.28;;;3.88;;
53666;SDS011;39568;51.026;5.468;2022-07-25T05:46:10;5.88;;;4.25;;
53666;SDS011;39568;51.026;5.468;2022-07-25T05:48:37;8.88;;;5.15;;
53666;SDS011;39568;51.026;5.468;2022-07-25T05:51:03;6.45;;;4.40;;
53666;SDS011;39568;51.026;5.468;2022-07-25T05:53:31;3.80;;;3.60;;
53666;SDS011;39568;51.026;5.468;2022-07-25T05:55:58;4.20;;;3.83;;
53666;SDS011;39568;51.026;5.468;2022-07-25T05:58:25;4.18;;;3.85;;
53666;SDS011;39568;51.026;5.468;2022-07-25T06:00:51;5.28;;;3.88;;
53666;SDS011;39568;51.026;5.468;2022-07-25T06:03:19;5.95;;;4.30;;
53666;SDS011;39568;51.026;5.468;2022-07-25T06:05:46;5.53;;;3.95;;
53666;SDS011;39568;51.026;5.468;2022-07-25T06:08:12;7.53;;;5.53;;
53666;SDS011;39568;51.026;5.468;2022-07-25T06:10:41;5.20;;;4.00;;
53666;SDS011;39568;51.026;5.468;2022-07-25T06:13:07;4.93;;;4.45;;
53666;SDS011;39568;51.026;5.468;2022-07-25T06:15:34;7.07;;;4.40;;
53666;SDS011;39568;51.026;5.468;2022-07-25T06:18:01;7.25;;;4.53;;
53666;SDS011;39568;51.026;5.468;2022-07-25T06:20:28;4.38;;;3.83;;
53666;SDS011;39568;51.026;5.468;2022-07-25T06:22:54;4.22;;;3.88;;
53666;SDS011;39568;51.026;5.468;2022-07-25T06:25:21;4.95;;;4.55;;
53666;SDS011;39568;51.026;5.468;2022-07-25T06:27:49;12.68;;;4.43;;
53666;SDS011;39568;51.026;5.468;2022-07-25T06:30:16;5.13;;;4.68;;
53666;SDS011;39568;51.026;5.468;2022-07-25T06:32:43;4.25;;;3.88;;
53666;SDS011;39568;51.026;5.468;2022-07-25T06:35:09;7.28;;;3.35;;
53666;SDS011;39568;51.026;5.468;2022-07-25T06:37:36;6.10;;;4.65;;
53666;SDS011;39568;51.026;5.468;2022-07-25T06:40:04;7.35;;;3.83;;
53666;SDS011;39568;51.026;5.468;2022-07-25T06:42:31;4.65;;;4.32;;
53666;SDS011;39568;51.026;5.468;2022-07-25T06:45:03;9.27;;;3.65;;
53666;SDS011;39568;51.026;5.468;2022-07-25T06:47:30;4.30;;;2.25;;
53666;SDS011;39568;51.026;5.468;2022-07-25T06:49:56;4.00;;;3.60;;
53666;SDS011;39568;51.026;5.468;2022-07-25T06:52:23;5.25;;;3.03;;
53666;SDS011;39568;51.026;5.468;2022-07-25T06:54:50;9.27;;;3.25;;
53666;SDS011;39568;51.026;5.468;2022-07-25T06:57:16;10.65;;;3.30;;
53666;SDS011;39568;51.026;5.468;2022-07-25T06:59:43;4.22;;;3.72;;
53666;SDS011;39568;51.026;5.468;2022-07-25T07:02:11;3.53;;;3.22;;
53666;SDS011;39568;51.026;5.468;2022-07-25T07:04:38;7.70;;;3.15;;
53666;SDS011;39568;51.026;5.468;2022-07-25T07:07:05;8.80;;;2.88;;
53666;SDS011;39568;51.026;5.468;2022-07-25T07:09:31;4.63;;;3.42;;
53666;SDS011;39568;51.026;5.468;2022-07-25T07:11:58;4.18;;;3.80;;
53666;SDS011;39568;51.026;5.468;2022-07-25T07:14:25;9.80;;;4.00;;
53666;SDS011;39568;51.026;5.468;2022-07-25T07:16:51;4.57;;;3.13;;
53666;SDS011;39568;51.026;5.468;2022-07-25T07:19:20;8.10;;;4.20;;
53666;SDS011;39568;51.026;5.468;2022-07-25T07:21:46;4.57;;;3.63;;
53666;SDS011;39568;51.026;5.468;2022-07-25T07:24:14;3.10;;;2.90;;
53666;SDS011;39568;51.026;5.468;2022-07-25T07:26:40;5.18;;;3.70;;
53666;SDS011;39568;51.026;5.468;2022-07-25T07:29:07;3.95;;;3.50;;
53666;SDS011;39568;51.026;5.468;2022-07-25T07:31:33;6.63;;;2.90;;
53666;SDS011;39568;51.026;5.468;2022-07-25T07:34:00;6.30;;;3.15;;
53666;SDS011;39568;51.026;5.468;2022-07-25T07:36:28;6.20;;;3.50;;
53666;SDS011;39568;51.026;5.468;2022-07-25T07:38:55;4.82;;;3.55;;
53666;SDS011;39568;51.026;5.468;2022-07-25T07:41:21;3.17;;;2.58;;
53666;SDS011;39568;51.026;5.468;2022-07-25T07:43:48;5.13;;;2.83;;
53666;SDS011;39568;51.026;5.468;2022-07-25T07:46:15;3.55;;;2.30;;
53666;SDS011;39568;51.026;5.468;2022-07-25T07:48:41;3.55;;;3.25;;
53666;SDS011;39568;51.026;5.468;2022-07-25T07:51:08;5.88;;;2.50;;
53666;SDS011;39568;51.026;5.468;2022-07-25T07:53:36;3.75;;;3.40;;
53666;SDS011;39568;51.026;5.468;2022-07-25T07:56:20;11.00;;;3.08;;
53666;SDS011;39568;51.026;5.468;2022-07-25T07:58:47;3.25;;;1.77;;
53666;SDS011;39568;51.026;5.468;2022-07-25T08:01:14;5.53;;;1.55;;
53666;SDS011;39568;51.026;5.468;2022-07-25T08:03:41;2.67;;;1.95;;
53666;SDS011;39568;51.026;5.468;2022-07-25T08:06:07;2.13;;;1.92;;
53666;SDS011;39568;51.026;5.468;2022-07-25T08:08:36;4.88;;;3.05;;
53666;SDS011;39568;51.026;5.468;2022-07-25T08:11:04;6.38;;;2.15;;
53666;SDS011;39568;51.026;5.468;2022-07-25T08:13:31;1.92;;;1.83;;
53666;SDS011;39568;51.026;5.468;2022-07-25T08:15:59;4.93;;;1.65;;
53666;SDS011;39568;51.026;5.468;2022-07-25T08:18:27;5.75;;;1.58;;
53666;SDS011;39568;51.026;5.468;2022-07-25T08:20:54;0.75;;;0.73;;
53666;SDS011;39568;51.026;5.468;2022-07-25T08:23:21;2.28;;;1.35;;
53666;SDS011;39568;51.026;5.468;2022-07-25T08:25:50;4.63;;;1.85;;
53666;SDS011;39568;51.026;5.468;2022-07-25T08:28:17;5.80;;;2.08;;
53666;SDS011;39568;51.026;5.468;2022-07-25T08:30:44;6.13;;;2.40;;
53666;SDS011;39568;51.026;5.468;2022-07-25T08:33:12;1.70;;;1.15;;
53666;SDS011;39568;51.026;5.468;2022-07-25T08:35:44;6.50;;;2.15;;
53666;SDS011;39568;51.026;5.468;2022-07-25T08:38:11;2.00;;;1.52;;
53666;SDS011;39568;51.026;5.468;2022-07-25T08:40:38;1.83;;;1.60;;
53666;SDS011;39568;51.026;5.468;2022-07-25T08:43:07;3.63;;;1.88;;
53666;SDS011;39568;51.026;5.468;2022-07-25T08:45:37;3.90;;;1.05;;
53666;SDS011;39568;51.026;5.468;2022-07-25T08:48:09;2.03;;;1.63;;
53666;SDS011;39568;51.026;5.468;2022-07-25T08:50:36;4.32;;;2.40;;
53666;SDS011;39568;51.026;5.468;2022-07-25T08:53:04;5.68;;;1.40;;
53666;SDS011;39568;51.026;5.468;2022-07-25T08:55:31;6.95;;;1.90;;
53666;SDS011;39568;51.026;5.468;2022-07-25T08:57:57;6.07;;;1.60;;
53666;SDS011;39568;51.026;5.468;2022-07-25T09:00:26;7.60;;;1.40;;
53666;SDS011;39568;51.026;5.468;2022-07-25T09:02:54;2.30;;;1.20;;
53666;SDS011;39568;51.026;5.468;2022-07-25T09:05:23;7.55;;;1.23;;
53666;SDS011;39568;51.026;5.468;2022-07-25T09:07:51;5.40;;;1.73;;
53666;SDS011;39568;51.026;5.468;2022-07-25T09:10:19;3.20;;;1.35;;
53666;SDS011;39568;51.026;5.468;2022-07-25T09:12:51;3.03;;;0.98;;
53666;SDS011;39568;51.026;5.468;2022-07-25T09:15:22;2.28;;;0.90;;
53666;SDS011;39568;51.026;5.468;2022-07-25T09:17:51;2.17;;;0.90;;
53666;SDS011;39568;51.026;5.468;2022-07-25T09:20:19;7.25;;;1.15;;
53666;SDS011;39568;51.026;5.468;2022-07-25T09:22:46;3.47;;;1.13;;
53666;SDS011;39568;51.026;5.468;2022-07-25T09:25:20;5.80;;;1.38;;
53666;SDS011;39568;51.026;5.468;2022-07-25T09:27:48;2.60;;;1.00;;
53666;SDS011;39568;51.026;5.468;2022-07-25T09:30:15;3.67;;;1.50;;
53666;SDS011;39568;51.026;5.468;2022-07-25T09:32:42;3.63;;;1.33;;
53666;SDS011;39568;51.026;5.468;2022-07-25T09:35:10;1.10;;;1.00;;
53666;SDS011;39568;51.026;5.468;2022-07-25T09:37:37;2.45;;;1.20;;
53666;SDS011;39568;51.026;5.468;2022-07-25T09:40:11;3.60;;;1.30;;
53666;SDS011;39568;51.026;5.468;2022-07-25T09:42:39;2.80;;;1.90;;
53666;SDS011;39568;51.026;5.468;2022-07-25T09:45:08;5.00;;;1.20;;
53666;SDS011;39568;51.026;5.468;2022-07-25T09:47:37;5.82;;;1.58;;
53666;SDS011;39568;51.026;5.468;2022-07-25T09:50:15;15.68;;;1.10;;
53666;SDS011;39568;51.026;5.468;2022-07-25T09:52:43;0.80;;;0.80;;
53666;SDS011;39568;51.026;5.468;2022-07-25T09:55:10;1.98;;;0.90;;
53666;SDS011;39568;51.026;5.468;2022-07-25T09:57:38;2.67;;;0.98;;
53666;SDS011;39568;51.026;5.468;2022-07-25T10:00:06;3.05;;;0.63;;
53666;SDS011;39568;51.026;5.468;2022-07-25T10:02:38;3.83;;;1.60;;
53666;SDS011;39568;51.026;5.468;2022-07-25T10:05:11;1.10;;;0.65;;
53666;SDS011;39568;51.026;5.468;2022-07-25T10:07:42;7.50;;;0.90;;
53666;SDS011;39568;51.026;5.468;2022-07-25T10:10:19;8.40;;;0.75;;
53666;SDS011;39568;51.026;5.468;2022-07-25T10:12:59;2.28;;;0.70;;
53666;SDS011;39568;51.026;5.468;2022-07-25T10:15:37;1.95;;;1.25;;
53666;SDS011;39568;51.026;5.468;2022-07-25T10:18:05;5.82;;;1.10;;
53666;SDS011;39568;51.026;5.468;2022-07-25T10:20:33;3.90;;;1.40;;
53666;SDS011;39568;51.026;5.468;2022-07-25T10:23:01;2.25;;;1.27;;
53666;SDS011;39568;51.026;5.468;2022-07-25T10:25:28;13.40;;;0.80;;
53666;SDS011;39568;51.026;5.468;2022-07-25T10:27:57;10.10;;;1.48;;
53666;SDS011;39568;51.026;5.468;2022-07-25T10:30:32;11.07;;;1.40;;
53666;SDS011;39568;51.026;5.468;2022-07-25T10:33:01;1.15;;;0.90;;
53666;SDS011;39568;51.026;5.468;2022-07-25T10:35:29;1.95;;;1.20;;
53666;SDS011;39568;51.026;5.468;2022-07-25T10:37:56;0.93;;;0.90;;
53666;SDS011;39568;51.026;5.468;2022-07-25T10:40:26;1.23;;;0.77;;
53666;SDS011;39568;51.026;5.468;2022-07-25T10:42:55;1.85;;;1.25;;
53666;SDS011;39568;51.026;5.468;2022-07-25T10:45:25;2.13;;;1.15;;
53666;SDS011;39568;51.026;5.468;2022-07-25T10:48:05;4.28;;;1.23;;
53666;SDS011;39568;51.026;5.468;2022-07-25T10:52:59;1.65;;;0.98;;
53666;SDS011;39568;51.026;5.468;2022-07-25T10:55:34;0.95;;;0.85;;
53666;SDS011;39568;51.026;5.468;2022-07-25T10:58:02;4.95;;;1.02;;
53666;SDS011;39568;51.026;5.468;2022-07-25T11:00:31;0.57;;;0.57;;
53666;SDS011;39568;51.026;5.468;2022-07-25T11:02:58;1.98;;;0.73;;
53666;SDS011;39568;51.026;5.468;2022-07-25T11:05:25;1.85;;;0.88;;
53666;SDS011;39568;51.026;5.468;2022-07-25T11:07:54;0.90;;;0.60;;
53666;SDS011;39568;51.026;5.468;2022-07-25T11:10:24;1.00;;;0.90;;
53666;SDS011;39568;51.026;5.468;2022-07-25T11:12:52;3.22;;;0.85;;
53666;SDS011;39568;51.026;5.468;2022-07-25T11:15:20;2.33;;;0.77;;
53666;SDS011;39568;51.026;5.468;2022-07-25T11:17:48;2.50;;;0.93;;
53666;SDS011;39568;51.026;5.468;2022-07-25T11:20:16;5.32;;;1.00;;
53666;SDS011;39568;51.026;5.468;2022-07-25T11:22:49;3.00;;;0.95;;
53666;SDS011;39568;51.026;5.468;2022-07-25T11:25:16;1.90;;;1.10;;
53666;SDS011;39568;51.026;5.468;2022-07-25T11:27:48;3.38;;;1.05;;
53666;SDS011;39568;51.026;5.468;2022-07-25T11:30:22;2.17;;;0.65;;
53666;SDS011;39568;51.026;5.468;2022-07-25T11:32:50;1.17;;;0.70;;
53666;SDS011;39568;51.026;5.468;2022-07-25T11:35:19;5.78;;;1.42;;
53666;SDS011;39568;51.026;5.468;2022-07-25T11:37:47;6.68;;;1.17;;
53666;SDS011;39568;51.026;5.468;2022-07-25T11:40:15;3.03;;;0.80;;
53666;SDS011;39568;51.026;5.468;2022-07-25T11:42:43;2.47;;;1.30;;
53666;SDS011;39568;51.026;5.468;2022-07-25T11:45:14;5.32;;;1.10;;
53666;SDS011;39568;51.026;5.468;2022-07-25T11:47:45;0.90;;;0.70;;
53666;SDS011;39568;51.026;5.468;2022-07-25T11:50:13;2.75;;;1.08;;
53666;SDS011;39568;51.026;5.468;2022-07-25T11:52:40;4.40;;;1.35;;
53666;SDS011;39568;51.026;5.468;2022-07-25T11:55:08;1.98;;;0.88;;
53666;SDS011;39568;51.026;5.468;2022-07-25T11:57:37;5.15;;;1.67;;
53666;SDS011;39568;51.026;5.468;2022-07-25T12:00:07;0.77;;;0.77;;
53666;SDS011;39568;51.026;5.468;2022-07-25T12:02:36;0.93;;;0.73;;
53666;SDS011;39568;51.026;5.468;2022-07-25T12:05:06;9.35;;;1.05;;
53666;SDS011;39568;51.026;5.468;2022-07-25T12:07:38;3.35;;;0.90;;
53666;SDS011;39568;51.026;5.468;2022-07-25T12:10:07;5.85;;;1.38;;
53666;SDS011;39568;51.026;5.468;2022-07-25T12:12:46;3.17;;;0.98;;
53666;SDS011;39568;51.026;5.468;2022-07-25T12:15:14;6.40;;;1.23;;
53666;SDS011;39568;51.026;5.468;2022-07-25T12:17:47;4.15;;;0.90;;
53666;SDS011;39568;51.026;5.468;2022-07-25T12:20:17;2.38;;;1.02;;
53666;SDS011;39568;51.026;5.468;2022-07-25T12:22:46;2.30;;;1.52;;
53666;SDS011;39568;51.026;5.468;2022-07-25T12:25:13;1.17;;;0.95;;
53666;SDS011;39568;51.026;5.468;2022-07-25T12:27:40;1.13;;;0.85;;
53666;SDS011;39568;51.026;5.468;2022-07-25T12:30:08;4.55;;;1.60;;
53666;SDS011;39568;51.026;5.468;2022-07-25T12:32:36;5.45;;;1.20;;
53666;SDS011;39568;51.026;5.468;2022-07-25T12:35:04;6.88;;;1.58;;
53666;SDS011;39568;51.026;5.468;2022-07-25T12:37:33;8.77;;;1.15;;
53666;SDS011;39568;51.026;5.468;2022-07-25T12:40:00;2.30;;;1.35;;
53666;SDS011;39568;51.026;5.468;2022-07-25T12:42:27;3.70;;;1.50;;
53666;SDS011;39568;51.026;5.468;2022-07-25T12:44:53;1.75;;;1.52;;
53666;SDS011;39568;51.026;5.468;2022-07-25T12:47:20;2.97;;;0.90;;
53666;SDS011;39568;51.026;5.468;2022-07-25T12:49:47;3.08;;;1.35;;
53666;SDS011;39568;51.026;5.468;2022-07-25T12:52:14;9.07;;;2.35;;
53666;SDS011;39568;51.026;5.468;2022-07-25T12:54:42;3.75;;;2.22;;
53666;SDS011;39568;51.026;5.468;2022-07-25T12:57:09;1.23;;;1.15;;
53666;SDS011;39568;51.026;5.468;2022-07-25T12:59:37;2.05;;;1.85;;
53666;SDS011;39568;51.026;5.468;2022-07-25T13:02:04;11.10;;;2.08;;
53666;SDS011;39568;51.026;5.468;2022-07-25T13:04:31;5.22;;;1.67;;
53666;SDS011;39568;51.026;5.468;2022-07-25T13:06:58;7.00;;;2.28;;
53666;SDS011;39568;51.026;5.468;2022-07-25T13:09:25;5.38;;;1.40;;
53666;SDS011;39568;51.026;5.468;2022-07-25T13:11:54;1.38;;;1.27;;
53666;SDS011;39568;51.026;5.468;2022-07-25T13:14:21;3.80;;;1.48;;
53666;SDS011;39568;51.026;5.468;2022-07-25T13:16:48;3.45;;;1.70;;
53666;SDS011;39568;51.026;5.468;2022-07-25T13:19:15;3.75;;;1.38;;
53666;SDS011;39568;51.026;5.468;2022-07-25T13:21:43;14.10;;;1.35;;
53666;SDS011;39568;51.026;5.468;2022-07-25T13:24:10;7.57;;;1.33;;
53666;SDS011;39568;51.026;5.468;2022-07-25T13:26:37;2.10;;;1.23;;
53666;SDS011;39568;51.026;5.468;2022-07-25T13:29:06;2.33;;;1.20;;
53666;SDS011;39568;51.026;5.468;2022-07-25T13:31:35;3.58;;;1.13;;
53666;SDS011;39568;51.026;5.468;2022-07-25T13:34:02;3.58;;;1.35;;
53666;SDS011;39568;51.026;5.468;2022-07-25T13:36:30;3.85;;;0.98;;
53666;SDS011;39568;51.026;5.468;2022-07-25T13:38:57;9.48;;;1.20;;
53666;SDS011;39568;51.026;5.468;2022-07-25T13:41:23;1.65;;;0.98;;
53666;SDS011;39568;51.026;5.468;2022-07-25T13:43:50;0.63;;;0.47;;
53666;SDS011;39568;51.026;5.468;2022-07-25T13:46:18;4.55;;;1.10;;
53666;SDS011;39568;51.026;5.468;2022-07-25T13:48:45;1.52;;;1.27;;
53666;SDS011;39568;51.026;5.468;2022-07-25T13:51:12;25.15;;;2.15;;
53666;SDS011;39568;51.026;5.468;2022-07-25T13:53:38;1.00;;;0.65;;
53666;SDS011;39568;51.026;5.468;2022-07-25T13:56:05;7.43;;;1.30;;
53666;SDS011;39568;51.026;5.468;2022-07-25T13:58:32;2.15;;;1.25;;
53666;SDS011;39568;51.026;5.468;2022-07-25T14:00:59;2.03;;;0.93;;
53666;SDS011;39568;51.026;5.468;2022-07-25T14:03:27;4.22;;;0.82;;
53666;SDS011;39568;51.026;5.468;2022-07-25T14:05:54;2.38;;;0.90;;
53666;SDS011;39568;51.026;5.468;2022-07-25T14:08:21;3.50;;;0.98;;
53666;SDS011;39568;51.026;5.468;2022-07-25T14:10:50;3.83;;;1.15;;
53666;SDS011;39568;51.026;5.468;2022-07-25T14:13:17;7.20;;;1.42;;
53666;SDS011;39568;51.026;5.468;2022-07-25T14:15:43;7.72;;;1.05;;
53666;SDS011;39568;51.026;5.468;2022-07-25T14:18:10;5.75;;;1.05;;
53666;SDS011;39568;51.026;5.468;2022-07-25T14:20:38;0.88;;;0.75;;
53666;SDS011;39568;51.026;5.468;2022-07-25T14:23:05;2.30;;;1.08;;
53666;SDS011;39568;51.026;5.468;2022-07-25T14:25:31;4.40;;;1.50;;
53666;SDS011;39568;51.026;5.468;2022-07-25T14:27:58;3.55;;;1.55;;
53666;SDS011;39568;51.026;5.468;2022-07-25T14:30:25;8.07;;;1.13;;
53666;SDS011;39568;51.026;5.468;2022-07-25T14:32:52;3.50;;;1.55;;
53666;SDS011;39568;51.026;5.468;2022-07-25T14:35:19;12.55;;;1.50;;
53666;SDS011;39568;51.026;5.468;2022-07-25T14:37:47;6.03;;;1.55;;
53666;SDS011;39568;51.026;5.468;2022-07-25T14:40:13;2.40;;;1.05;;
53666;SDS011;39568;51.026;5.468;2022-07-25T14:42:40;8.05;;;1.95;;
53666;SDS011;39568;51.026;5.468;2022-07-25T14:45:09;4.22;;;1.38;;
53666;SDS011;39568;51.026;5.468;2022-07-25T14:47:36;1.65;;;1.38;;
53666;SDS011;39568;51.026;5.468;2022-07-25T14:50:04;4.95;;;1.42;;